Time;durP1;ratioP1;P1;durP2;ratioP2;P2;SDS_P1;SDS_P2;PMS_P1;PMS_P2;Temp;Humidity;BMP_temperature;BMP_pressure;BME280_temperature;BME280_humidity;BME280_pressure;Samples;Min_cycle;Max_cycle;Signal;HPM_P1;HPM_P2
2021/12/18 00:00:57;;;;;;;;;;;;;;;3.73;100.00;103024.97;5075120;28;1001;-77
2021/12/18 00:03:24;;;;;;;;;;;;;;;3.75;100.00;103018.66;5058746;28;1403;-75
2021/12/18 00:05:50;;;;;;;;;;;;;;;3.76;100.00;103020.44;5058651;28;1210;-75
2021/12/18 00:08:18;;;;;;;;;;;;;;;3.76;100.00;103012.38;5058723;28;1302;-74
2021/12/18 00:10:45;;;;;;;;;;;;;;;3.78;100.00;102996.22;5069392;28;1416;-76
2021/12/18 00:13:11;;;;;;;;;;;;;;;3.78;100.00;102999.84;5095588;28;1321;-76
2021/12/18 00:15:38;;;;;;;;;;;;;;;3.78;100.00;102991.78;5095725;28;1250;-76
2021/12/18 00:18:04;;;;;;;;;;;;;;;3.81;100.00;102989.03;5078408;28;1902;-78
2021/12/18 00:20:31;;;;;;;;;;;;;;;3.87;100.00;102995.22;5078165;28;1133;-76
2021/12/18 00:22:57;;;;;;;;;;;;;;;3.86;100.00;102986.25;5078460;28;1319;-76
2021/12/18 00:25:25;;;;;;;;;;;;;;;3.88;100.00;102984.44;5078057;28;1424;-76
2021/12/18 00:27:51;;;;;;;;;;;;;;;3.89;100.00;102986.22;5095207;28;1152;-76
2021/12/18 00:30:18;;;;;;;;;;;;;;;3.88;100.00;102986.25;5078198;28;1292;-76
2021/12/18 00:32:44;;;;;;;;;;;;;;;3.86;100.00;102991.63;5078394;28;1293;-76
2021/12/18 00:35:11;;;;;;;;;;;;;;;3.91;100.00;102995.13;5078193;28;1396;-76
2021/12/18 00:37:37;;;;;;;;;;;;;;;3.89;100.00;103002.34;5079045;28;1971;-75
2021/12/18 00:40:09;;;;;;;;;;;;;;;3.89;100.00;102996.97;5057977;28;1317;-76
2021/12/18 00:42:42;;;;;;;;;;;;;;;3.84;100.00;102999.72;5058087;28;1168;-74
2021/12/18 00:45:09;;;;;;;;;;;;;;;3.89;100.00;102998.75;5058153;28;1617;-76
2021/12/18 00:47:36;;;;;;;;;;;;;;;3.87;100.00;103000.59;5074836;28;1404;-75
2021/12/18 00:50:03;;;;;;;;;;;;;;;3.88;100.00;102999.69;5078099;28;1380;-76
2021/12/18 00:52:30;;;;;;;;;;;;;;;3.89;100.00;103012.19;5078559;28;1533;-76
2021/12/18 00:54:56;;;;;;;;;;;;;;;3.90;100.00;103008.59;5077673;28;1578;-75
2021/12/18 00:57:23;;;;;;;;;;;;;;;3.93;100.00;103008.53;5061263;28;1906;-76
2021/12/18 00:59:53;;;;;;;;;;;;;;;3.89;100.00;103007.72;5057880;28;1144;-76
2021/12/18 01:02:19;;;;;;;;;;;;;;;3.88;100.00;103002.38;5058397;28;1283;-75
2021/12/18 01:04:46;;;;;;;;;;;;;;;3.84;100.00;102998.84;5058109;28;1343;-77
2021/12/18 01:07:12;;;;;;;;;;;;;;;3.81;100.00;102994.41;5073840;28;1364;-75
2021/12/18 01:09:55;;;;;;;;;;;;;;;3.81;100.00;102996.22;5078075;28;1180;-77
2021/12/18 01:12:26;;;;;;;;;;;;;;;3.80;100.00;102995.31;5078366;28;1265;-75
2021/12/18 01:15:05;;;;;;;;;;;;;;;3.82;100.00;102985.44;5078309;28;1337;-78
2021/12/18 01:22:59;;;;;;;;;;;;;;;3.80;100.00;102978.31;5058024;28;1313;-75
2021/12/18 01:25:26;;;;;;;;;;;;;;;3.81;100.00;102978.28;5058106;28;1483;-77
2021/12/18 01:27:52;;;;;;;;;;;;;;;3.79;100.00;102980.09;5057924;28;1184;-76
2021/12/18 01:30:20;;;;;;;;;;;;;;;3.82;100.00;102969.31;5057643;28;1121;-75
2021/12/18 01:32:46;;;;;;;;;;;;;;;3.84;100.00;102969.28;5074513;28;752;-76
2021/12/18 01:35:13;;;;;;;;;;;;;;;3.84;100.00;102967.47;5060232;28;1407;-75
2021/12/18 01:37:41;;;;;;;;;;;;;;;3.84;100.00;102972.84;5077809;28;1906;-74
2021/12/18 01:40:09;;;;;;;;;;;;;;;3.83;100.00;102976.44;5077636;28;1132;-76
2021/12/18 01:45:46;;;;;;;;;;;;;;;3.82;100.00;102971.09;5016382;28;1389;-74
2021/12/18 01:51:19;;;;;;;;;;;;;;;3.79;100.00;102974.72;5071712;28;1066;-74
2021/12/18 01:53:45;;;;;;;;;;;;;;;3.80;100.00;102976.50;5077399;28;1332;-75
2021/12/18 01:56:12;;;;;;;;;;;;;;;3.81;100.00;102978.28;5077868;28;1339;-75
2021/12/18 01:58:39;;;;;;;;;;;;;;;3.80;100.00;102971.13;5077601;28;1989;-75
2021/12/18 02:01:07;;;;;;;;;;;;;;;3.81;100.00;102972.91;5066921;28;1471;-75
2021/12/18 02:03:34;;;;;;;;;;;;;;;3.82;100.00;102980.06;5077745;28;1316;-75
2021/12/18 02:06:00;;;;;;;;;;;;;;;3.85;100.00;102995.25;5060975;28;1210;-76
2021/12/18 02:08:27;;;;;;;;;;;;;;;3.82;100.00;102982.75;5061090;28;1151;-78
2021/12/18 02:10:58;;;;;;;;;;;;;;;3.85;100.00;102984.50;5077179;28;1212;-74
2021/12/18 02:13:38;;;;;;;;;;;;;;;3.85;100.00;102985.38;5073391;28;1404;-77
2021/12/18 02:21:36;;;;;;;;;;;;;;;3.85;100.00;102988.06;5080586;28;1223;-72
2021/12/18 02:24:03;;;;;;;;;;;;;;;3.85;100.00;102984.50;5061955;28;1463;-76
2021/12/18 02:26:29;;;;;;;;;;;;;;;3.86;100.00;102980.88;5060559;28;1013;-75
2021/12/18 02:28:58;;;;;;;;;;;;;;;3.91;100.00;102995.13;5060678;28;1237;-75
2021/12/18 02:31:25;;;;;;;;;;;;;;;3.91;100.00;102989.75;5060280;28;1163;-75
2021/12/18 02:33:52;;;;;;;;;;;;;;;3.90;100.00;102997.84;5060256;28;1555;-76
2021/12/18 02:36:23;;;;;;;;;;;;;;;3.91;100.00;102988.88;5060605;28;1148;-76
2021/12/18 02:39:05;;;;;;;;;;;;;;;3.90;100.00;102988.00;5060236;28;1997;-76
2021/12/18 02:41:35;;;;;;;;;;;;;;;3.94;100.00;102984.34;5060929;28;1391;-75
2021/12/18 02:44:02;;;;;;;;;;;;;;;3.95;100.00;102986.09;5060957;28;1362;-75
2021/12/18 02:46:29;;;;;;;;;;;;;;;3.96;100.00;102979.81;5060789;28;1322;-75
2021/12/18 02:48:57;;;;;;;;;;;;;;;3.95;100.00;102986.09;5060558;28;1262;-77
2021/12/18 02:51:23;;;;;;;;;;;;;;;3.95;100.00;102979.84;5063091;28;1499;-75
2021/12/18 02:53:52;;;;;;;;;;;;;;;3.96;100.00;102966.38;5060373;28;1566;-76
2021/12/18 02:56:23;;;;;;;;;;;;;;;3.93;100.00;102961.06;5060305;28;1229;-76
2021/12/18 02:58:50;;;;;;;;;;;;;;;3.94;100.00;102962.84;5060466;28;1991;-76
2021/12/18 03:01:19;;;;;;;;;;;;;;;3.92;100.00;102958.41;5059853;28;1403;-78
2021/12/18 03:03:46;;;;;;;;;;;;;;;3.93;100.00;102957.47;5060799;28;1414;-74
2021/12/18 03:06:22;;;;;;;;;;;;;;;3.92;100.00;102956.59;5060239;28;1303;-75
2021/12/18 03:08:57;;;;;;;;;;;;;;;3.93;100.00;102957.47;5060022;28;1128;-74
2021/12/18 03:25:05;;;;;;;;;;;;;;;3.93;100.00;102942.25;5059953;28;1473;-76
2021/12/18 03:27:33;;;;;;;;;;;;;;;3.97;100.00;102948.47;5059957;28;1420;-75
2021/12/18 03:30:00;;;;;;;;;;;;;;;3.97;100.00;102948.47;5059438;28;1246;-75
2021/12/18 03:32:26;;;;;;;;;;;;;;;3.97;100.00;102943.09;5076424;28;1279;-74
2021/12/18 03:34:53;;;;;;;;;;;;;;;3.98;100.00;102937.69;5059172;28;1438;-74
2021/12/18 03:37:20;;;;;;;;;;;;;;;3.98;100.00;102931.41;5074351;28;2295;-75
2021/12/18 03:39:47;;;;;;;;;;;;;;;3.98;100.00;102935.00;5095907;28;1343;-73
2021/12/18 03:42:14;;;;;;;;;;;;;;;3.99;100.00;102934.06;5079303;28;1363;-76
2021/12/18 03:44:41;;;;;;;;;;;;;;;3.98;100.00;102932.31;5079248;28;1280;-75
2021/12/18 03:47:08;;;;;;;;;;;;;;;3.96;100.00;102934.13;5063712;28;1400;-76
2021/12/18 03:49:35;;;;;;;;;;;;;;;3.94;100.00;102925.22;5058786;28;1139;-75
2021/12/18 03:52:01;;;;;;;;;;;;;;;3.95;100.00;102924.28;5059319;28;1340;-74
2021/12/18 03:54:27;;;;;;;;;;;;;;;3.97;100.00;102929.66;5058801;28;1380;-76
2021/12/18 03:56:54;;;;;;;;;;;;;;;3.96;100.00;102923.38;5072415;28;1917;-75
2021/12/18 03:59:21;;;;;;;;;;;;;;;3.99;100.00;102927.81;5078691;28;1505;-73
2021/12/18 04:01:48;;;;;;;;;;;;;;;3.98;100.00;102924.25;5078723;28;1241;-75
2021/12/18 04:04:15;;;;;;;;;;;;;;;3.98;100.00;102929.63;5078665;28;1308;-75
2021/12/18 04:06:42;;;;;;;;;;;;;;;3.98;100.00;102931.41;5064725;28;1576;-76
2021/12/18 04:09:11;;;;;;;;;;;;;;;4.00;100.00;102935.84;5058636;28;1195;-76
2021/12/18 04:11:37;;;;;;;;;;;;;;;4.01;100.00;102936.75;5058532;28;1152;-75
2021/12/18 04:14:04;;;;;;;;;;;;;;;4.01;100.00;102932.22;5058688;28;1409;-75
2021/12/18 04:16:30;;;;;;;;;;;;;;;4.00;100.00;102941.19;5071171;28;1385;-75
2021/12/18 04:18:58;;;;;;;;;;;;;;;3.97;100.00;102932.34;5078504;28;1988;-76
2021/12/18 04:21:24;;;;;;;;;;;;;;;4.01;100.00;102928.69;5078439;28;1312;-78
2021/12/18 04:23:51;;;;;;;;;;;;;;;4.00;100.00;102924.19;5078094;28;1323;-77
2021/12/18 04:26:17;;;;;;;;;;;;;;;4.02;100.00;102917.88;5065607;28;1376;-77
2021/12/18 04:28:43;;;;;;;;;;;;;;;4.04;100.00;102925.03;5058457;28;1427;-77
2021/12/18 04:31:10;;;;;;;;;;;;;;;4.02;100.00;102928.63;5058226;28;1135;-77
2021/12/18 04:33:36;;;;;;;;;;;;;;;4.02;100.00;102930.41;5057797;28;1391;-75
2021/12/18 04:36:04;;;;;;;;;;;;;;;4.01;100.00;102923.28;5076268;23;4110;-73
2021/12/18 04:38:31;;;;;;;;;;;;;;;4.01;100.00;102931.34;5092743;28;1910;-75
2021/12/18 04:40:58;;;;;;;;;;;;;;;4.04;100.00;102925.03;5074048;28;1252;-75
2021/12/18 04:43:24;;;;;;;;;;;;;;;4.03;100.00;102929.50;5091655;28;1113;-74
2021/12/18 04:45:51;;;;;;;;;;;;;;;4.07;100.00;102935.72;5086415;28;1467;-73
2021/12/18 04:48:17;;;;;;;;;;;;;;;4.05;100.00;102922.31;5071462;28;1278;-75
2021/12/18 04:50:44;;;;;;;;;;;;;;;4.04;100.00;102925.03;5071031;28;1127;-73
2021/12/18 04:53:11;;;;;;;;;;;;;;;4.05;100.00;102918.72;5071333;28;1278;-73
2021/12/18 04:55:38;;;;;;;;;;;;;;;4.07;100.00;102924.97;5070465;28;1495;-74
2021/12/18 04:58:04;;;;;;;;;;;;;;;4.05;100.00;102930.38;5071347;28;1914;-75
2021/12/18 05:00:38;;;;;;;;;;;;;;;4.07;100.00;102931.22;5071337;28;1401;-76
2021/12/18 05:03:06;;;;;;;;;;;;;;;4.07;100.00;102925.84;5071255;28;1128;-75
2021/12/18 05:05:33;;;;;;;;;;;;;;;4.08;100.00;102924.94;5070761;28;1350;-75
2021/12/18 05:08:00;;;;;;;;;;;;;;;4.10;100.00;102924.91;5054331;28;1176;-74
2021/12/18 05:10:28;;;;;;;;;;;;;;;4.09;100.00;102929.41;5053992;28;1330;-75
2021/12/18 05:12:55;;;;;;;;;;;;;;;4.10;100.00;102925.81;5071026;28;1150;-74
2021/12/18 05:15:21;;;;;;;;;;;;;;;4.09;100.00;102924.03;5053817;28;1469;-75
2021/12/18 05:17:48;;;;;;;;;;;;;;;4.04;100.00;102920.53;5054296;28;1987;-73
2021/12/18 05:20:14;;;;;;;;;;;;;;;4.05;100.00;102921.41;5054130;28;1151;-74
2021/12/18 05:22:41;;;;;;;;;;;;;;;4.04;100.00;102923.22;5068994;28;2135;-74
2021/12/18 05:25:07;;;;;;;;;;;;;;;4.04;100.00;102928.59;5054187;28;1152;-75
2021/12/18 05:27:36;;;;;;;;;;;;;;;4.02;100.00;102919.66;5062504;28;1295;-74
2021/12/18 05:30:02;;;;;;;;;;;;;;;4.03;100.00;102913.38;5054023;28;1294;-74
2021/12/18 05:32:29;;;;;;;;;;;;;;;4.03;100.00;102916.06;5070911;28;1262;-75
2021/12/18 05:34:55;;;;;;;;;;;;;;;4.07;100.00;102915.09;5071013;28;1333;-73
2021/12/18 05:37:32;;;;;;;;;;;;;;;4.04;100.00;102912.47;5075858;28;1381;-73
2021/12/18 05:39:59;;;;;;;;;;;;;;;4.01;100.00;102905.34;5057675;28;1187;-75
2021/12/18 05:42:26;;;;;;;;;;;;;;;4.00;100.00;102900.00;5057675;28;1405;-75
2021/12/18 05:44:54;;;;;;;;;;;;;;;4.02;100.00;102903.53;5074831;28;1203;-72
2021/12/18 05:47:21;;;;;;;;;;;;;;;4.01;100.00;102893.72;5057516;28;1531;-75
2021/12/18 05:49:47;;;;;;;;;;;;;;;4.04;100.00;102896.34;5053987;28;1579;-74
2021/12/18 05:52:14;;;;;;;;;;;;;;;4.04;100.00;102904.41;5058026;28;1463;-75
2021/12/18 05:54:40;;;;;;;;;;;;;;;4.03;100.00;102899.94;5072420;28;1557;-74
2021/12/18 05:57:09;;;;;;;;;;;;;;;4.02;100.00;102907.13;5070209;28;1491;-75
2021/12/18 05:59:36;;;;;;;;;;;;;;;4.02;100.00;102891.00;5070695;28;1984;-75
2021/12/18 06:02:04;;;;;;;;;;;;;;;3.98;100.00;102902.75;5054390;28;1408;-75
2021/12/18 06:04:31;;;;;;;;;;;;;;;3.99;100.00;102904.50;5054228;28;1051;-74
2021/12/18 06:07:03;;;;;;;;;;;;;;;3.98;100.00;102900.06;5071130;28;1388;-74
2021/12/18 06:09:30;;;;;;;;;;;;;;;4.01;100.00;102899.97;5046394;28;1504;-74
2021/12/18 06:11:57;;;;;;;;;;;;;;;3.99;100.00;102898.25;5040631;28;1284;-75
2021/12/18 06:14:24;;;;;;;;;;;;;;;4.00;100.00;102897.34;5046646;28;1334;-75
2021/12/18 06:16:50;;;;;;;;;;;;;;;3.98;100.00;102894.69;5056593;28;1447;-75
2021/12/18 06:19:18;;;;;;;;;;;;;;;4.01;100.00;102899.09;5049916;28;1996;-75
2021/12/18 06:21:44;;;;;;;;;;;;;;;4.00;100.00;102894.63;5087595;28;1384;-75
2021/12/18 06:24:11;;;;;;;;;;;;;;;4.01;100.00;102894.59;5089816;28;1181;-76
2021/12/18 06:26:37;;;;;;;;;;;;;;;4.01;100.00;102888.34;5073476;28;1591;-75
2021/12/18 06:29:04;;;;;;;;;;;;;;;3.97;100.00;102882.16;5073051;28;1538;-75
2021/12/18 06:31:30;;;;;;;;;;;;;;;3.96;100.00;102883.06;5056588;28;1497;-75
2021/12/18 06:33:56;;;;;;;;;;;;;;;3.94;100.00;102882.22;5073241;28;1516;-75
2021/12/18 06:36:24;;;;;;;;;;;;;;;3.93;100.00;102883.13;5056690;28;1399;-75
2021/12/18 06:38:51;;;;;;;;;;;;;;;3.92;100.00;102875.97;5060949;28;1986;-74
2021/12/18 06:41:17;;;;;;;;;;;;;;;3.92;100.00;102878.66;5087623;28;1495;-75
2021/12/18 06:43:43;;;;;;;;;;;;;;;3.93;100.00;102882.22;5073435;28;1147;-75
2021/12/18 06:46:10;;;;;;;;;;;;;;;3.93;100.00;102876.84;5072306;28;1533;-75
2021/12/18 06:48:36;;;;;;;;;;;;;;;3.87;100.00;102876.97;5060388;28;1560;-74
2021/12/18 06:51:03;;;;;;;;;;;;;;;3.86;100.00;102873.38;5072322;28;1484;-75
2021/12/18 06:53:31;;;;;;;;;;;;;;;3.83;100.00;102874.31;5092187;28;1528;-74
2021/12/18 06:55:57;;;;;;;;;;;;;;;3.84;100.00;102873.41;5072442;28;1595;-75
2021/12/18 06:58:24;;;;;;;;;;;;;;;3.86;100.00;102878.75;5058260;28;1981;-73
2021/12/18 07:00:52;;;;;;;;;;;;;;;3.87;100.00;102880.53;5072839;28;1179;-75
2021/12/18 07:03:19;;;;;;;;;;;;;;;3.84;100.00;102878.78;5072711;28;1521;-76
2021/12/18 07:05:45;;;;;;;;;;;;;;;3.85;100.00;102877.88;5073489;28;1701;-75
2021/12/18 07:08:12;;;;;;;;;;;;;;;3.87;100.00;102871.59;5072836;28;1513;-76
2021/12/18 07:10:40;;;;;;;;;;;;;;;3.85;100.00;102871.63;5056494;28;1584;-75
2021/12/18 07:13:06;;;;;;;;;;;;;;;3.85;100.00;102868.94;5055496;28;1532;-73
2021/12/18 07:15:33;;;;;;;;;;;;;;;3.86;100.00;102881.44;5054401;28;1524;-77
2021/12/18 07:18:00;;;;;;;;;;;;;;;3.88;100.00;102871.56;5071191;28;1979;-75
2021/12/18 07:20:27;;;;;;;;;;;;;;;3.89;100.00;102873.34;5054061;28;1238;-75
2021/12/18 07:22:54;;;;;;;;;;;;;;;3.90;100.00;102864.38;5054051;28;1340;-76
2021/12/18 07:25:20;;;;;;;;;;;;;;;3.93;100.00;102867.00;5070814;28;1370;-76
2021/12/18 07:27:48;;;;;;;;;;;;;;;3.94;100.00;102857.13;5053782;28;1468;-75
2021/12/18 07:30:15;;;;;;;;;;;;;;;3.92;100.00;102862.53;5055772;28;1166;-76
2021/12/18 07:32:42;;;;;;;;;;;;;;;3.92;100.00;102858.97;5055888;28;1469;-74
2021/12/18 07:35:09;;;;;;;;;;;;;;;3.92;100.00;102850.91;5055647;28;1124;-77
2021/12/18 07:37:35;;;;;;;;;;;;;;;3.90;100.00;102847.34;5055273;28;1445;-76
2021/12/18 07:40:02;;;;;;;;;;;;;;;3.89;100.00;102845.56;5072108;28;1906;-76
2021/12/18 07:42:29;;;;;;;;;;;;;;;3.91;100.00;102850.00;5072414;28;1114;-74
2021/12/18 07:44:57;;;;;;;;;;;;;;;3.90;100.00;102834.81;5055558;28;1281;-73
2021/12/18 07:47:23;;;;;;;;;;;;;;;3.95;100.00;102835.59;5054943;28;1507;-74
2021/12/18 07:49:50;;;;;;;;;;;;;;;3.96;100.00;102832.00;5071550;28;1257;-75
2021/12/18 07:52:16;;;;;;;;;;;;;;;3.95;100.00;102821.28;5055529;28;1309;-74
2021/12/18 07:54:42;;;;;;;;;;;;;;;3.96;100.00;102825.75;5055619;28;1439;-75
2021/12/18 07:57:09;;;;;;;;;;;;;;;3.97;100.00;102822.16;5054764;28;1374;-76
2021/12/18 07:59:36;;;;;;;;;;;;;;;4.00;100.00;102822.06;5070986;28;1910;-74
2021/12/18 08:02:05;;;;;;;;;;;;;;;3.99;100.00;102820.28;5071903;28;970;-74
2021/12/18 08:04:31;;;;;;;;;;;;;;;3.98;100.00;102818.53;5055157;28;1239;-77
2021/12/18 08:06:58;;;;;;;;;;;;;;;4.00;100.00;102816.69;5071292;28;1435;-75
2021/12/18 08:09:24;;;;;;;;;;;;;;;4.01;100.00;102813.09;5071594;28;1120;-72
2021/12/18 08:11:50;;;;;;;;;;;;;;;4.04;100.00;102817.53;5055066;28;1233;-74
2021/12/18 08:14:17;;;;;;;;;;;;;;;4.07;100.00;102812.97;5073905;28;1452;-76
2021/12/18 08:16:43;;;;;;;;;;;;;;;4.07;100.00;102814.78;5087905;28;1507;-72
2021/12/18 08:19:11;;;;;;;;;;;;;;;4.06;100.00;102813.88;5071659;28;1909;-75
2021/12/18 08:21:37;;;;;;;;;;;;;;;4.05;100.00;102812.13;5070265;28;1576;-75
2021/12/18 08:24:04;;;;;;;;;;;;;;;4.05;100.00;102809.44;5071633;28;1502;-77
2021/12/18 08:26:30;;;;;;;;;;;;;;;4.06;100.00;102815.69;5059363;28;1555;-74
2021/12/18 08:28:57;;;;;;;;;;;;;;;4.05;100.00;102814.81;5060198;28;1580;-76
2021/12/18 08:31:23;;;;;;;;;;;;;;;4.07;100.00;102818.34;5071001;28;1383;-78
2021/12/18 08:33:50;;;;;;;;;;;;;;;4.12;100.00;102816.44;5050705;28;1294;-76
2021/12/18 08:36:18;;;;;;;;;;;;;;;4.10;100.00;102820.97;5048662;28;1346;-74
2021/12/18 08:38:44;;;;;;;;;;;;;;;4.11;100.00;102828.09;5073584;28;1917;-76
2021/12/18 08:41:11;;;;;;;;;;;;;;;4.11;100.00;102820.03;5071085;28;1680;-76
2021/12/18 08:43:38;;;;;;;;;;;;;;;4.07;100.00;102818.34;5054545;28;1564;-79
2021/12/18 08:46:04;;;;;;;;;;;;;;;4.11;100.00;102828.09;5070516;28;1523;-77
2021/12/18 08:48:31;;;;;;;;;;;;;;;4.14;100.00;102830.75;5052907;28;1671;-76
2021/12/18 08:50:57;;;;;;;;;;;;;;;4.15;100.00;102823.56;5071487;28;1657;-75
2021/12/18 08:53:25;;;;;;;;;;;;;;;4.16;100.00;102823.53;5053753;28;1869;-76
2021/12/18 08:55:51;;;;;;;;;;;;;;;4.10;100.00;102823.66;5070354;28;1505;-77
2021/12/18 08:58:18;;;;;;;;;;;;;;;4.14;100.00;102824.47;5056726;28;1156;-77
2021/12/18 09:00:44;;;;;;;;;;;;;;;4.17;100.00;102824.44;5054377;28;1984;-78
2021/12/18 09:03:11;;;;;;;;;;;;;;;4.18;100.00;102819.00;5071083;28;1150;-75
2021/12/18 09:05:37;;;;;;;;;;;;;;;4.18;100.00;102826.16;5053638;28;1646;-76
2021/12/18 09:08:04;;;;;;;;;;;;;;;4.16;100.00;102828.91;5054655;28;1305;-77
2021/12/18 09:10:32;;;;;;;;;;;;;;;4.16;100.00;102823.53;5056497;28;1342;-76
2021/12/18 09:12:59;;;;;;;;;;;;;;;4.21;100.00;102830.59;5057804;28;1196;-77
2021/12/18 09:15:26;;;;;;;;;;;;;;;4.26;100.00;102832.31;5071032;28;1369;-79
2021/12/18 09:17:52;;;;;;;;;;;;;;;4.16;100.00;102822.66;5046932;28;1231;-77
2021/12/18 09:20:19;;;;;;;;;;;;;;;4.18;100.00;102821.69;5052722;28;1918;-78
2021/12/18 09:22:45;;;;;;;;;;;;;;;4.21;100.00;102823.44;5075035;28;1282;-76
2021/12/18 09:25:12;;;;;;;;;;;;;;;4.19;100.00;102817.19;5057934;28;1428;-75
2021/12/18 09:27:40;;;;;;;;;;;;;;;4.11;100.00;102821.84;5058419;28;1311;-79
2021/12/18 09:30:08;;;;;;;;;;;;;;;4.12;100.00;102816.44;5058472;28;1138;-78
2021/12/18 09:32:35;;;;;;;;;;;;;;;4.10;100.00;102815.59;5058563;28;1147;-77
2021/12/18 09:35:01;;;;;;;;;;;;;;;4.13;100.00;102822.69;5057791;28;1433;-81
2021/12/18 09:37:27;;;;;;;;;;;;;;;4.14;100.00;102814.63;5074726;28;1405;-78
2021/12/18 09:39:54;;;;;;;;;;;;;;;4.13;100.00;102811.94;5075724;28;1902;-78
2021/12/18 09:42:21;;;;;;;;;;;;;;;4.12;100.00;102811.06;5058082;28;1309;-77
2021/12/18 09:44:49;;;;;;;;;;;;;;;4.16;100.00;102810.09;5074002;28;1464;-77
2021/12/18 09:47:16;;;;;;;;;;;;;;;4.14;100.00;102803.88;5057677;28;1328;-77
2021/12/18 09:49:43;;;;;;;;;;;;;;;4.22;100.00;102803.69;5057158;28;1311;-77
2021/12/18 09:52:09;;;;;;;;;;;;;;;4.25;100.00;102792.88;5057666;28;1301;-76
2021/12/18 09:54:36;;;;;;;;;;;;;;;4.25;100.00;102794.66;5057386;28;1404;-77
2021/12/18 09:57:02;;;;;;;;;;;;;;;4.25;100.00;102787.50;5074458;28;1355;-76
2021/12/18 09:59:28;;;;;;;;;;;;;;;4.32;100.00;102790.94;5056960;28;1914;-76
2021/12/18 10:01:56;;;;;;;;;;;;;;;4.31;100.00;102781.97;5074562;28;776;-77
2021/12/18 10:04:24;;;;;;;;;;;;;;;4.31;100.00;102781.09;5057266;28;1456;-75
2021/12/18 10:06:50;;;;;;;;;;;;;;;4.31;100.00;102773.91;5057289;28;1382;-78
2021/12/18 10:09:29;;;;;;;;;;;;;;;4.28;100.00;102776.66;5057466;28;1207;-76
2021/12/18 10:11:57;;;;;;;;;;;;;;;4.27;100.00;102771.34;5058075;28;1103;-76
2021/12/18 10:14:32;;;;;;;;;;;;;;;4.26;100.00;102777.63;5057254;28;1366;-76
2021/12/18 10:17:00;;;;;;;;;;;;;;;4.29;100.00;102767.69;5059385;28;1436;-77
2021/12/18 10:19:29;;;;;;;;;;;;;;;4.34;100.00;102767.56;5058067;28;1991;-75
2021/12/18 10:21:57;;;;;;;;;;;;;;;4.34;100.00;102748.75;5057099;28;1151;-76
2021/12/18 10:24:24;;;;;;;;;;;;;;;4.35;100.00;102750.53;5057432;28;1436;-77
2021/12/18 10:26:50;;;;;;;;;;;;;;;4.42;100.00;102749.47;5073823;28;1270;-77
2021/12/18 10:29:24;;;;;;;;;;;;;;;4.48;100.00;102743.94;5056993;28;1191;-76
2021/12/18 10:31:51;;;;;;;;;;;;;;;4.49;100.00;102748.41;5057286;28;1299;-75
2021/12/18 10:34:21;;;;;;;;;;;;;;;4.53;100.00;102741.16;5091198;28;1412;-79
2021/12/18 10:37:06;;;;;;;;;;;;;;;4.55;100.00;102738.44;5078156;22;3681;-74
2021/12/18 10:39:32;;;;;;;;;;;;;;;4.60;100.00;102739.22;5055933;28;1906;-74
2021/12/18 10:42:14;;;;;;;;;;;;;;;4.62;100.00;102740.03;5056909;28;1265;-76
2021/12/18 10:44:54;;;;;;;;;;;;;;;4.64;100.00;102724.75;5053114;28;1472;-75
2021/12/18 10:47:21;;;;;;;;;;;;;;;4.64;100.00;102724.75;5036679;28;1313;-75
2021/12/18 10:49:48;;;;;;;;;;;;;;;4.70;100.00;102719.22;5036308;28;1199;-75
2021/12/18 10:52:15;;;;;;;;;;;;;;;4.71;100.00;102712.91;5036629;28;1231;-77
2021/12/18 10:54:41;;;;;;;;;;;;;;;4.79;100.00;102713.59;5056688;28;1456;-76
2021/12/18 10:57:19;;;;;;;;;;;;;;;4.83;100.00;102707.22;5076644;28;1293;-75
2021/12/18 10:59:48;;;;;;;;;;;;;;;4.85;100.00;102709.88;5076275;28;1918;-76
2021/12/18 11:02:15;;;;;;;;;;;;;;;4.83;100.00;102701.84;5073947;28;1795;-75
2021/12/18 11:04:43;;;;;;;;;;;;;;;4.91;100.00;102695.38;5064959;28;1593;-76
2021/12/18 11:07:18;;;;;;;;;;;;;;;4.93;100.00;102696.22;5076139;28;1298;-76
2021/12/18 11:10:11;;;;;;;;;;;;;;;4.90;100.00;102693.63;5075915;28;1115;-75
2021/12/18 11:15:16;;;;;;;;;;;;;;;4.99;100.00;102691.56;5058610;28;1349;-72
2021/12/18 11:17:42;;;;;;;;;;;;;;;4.93;100.00;102690.84;5056065;28;1360;-73
2021/12/18 11:57:59;;;;;;;;;;;;;;;4.94;100.00;102645.03;5299512;22;2177;-75
2021/12/18 12:00:33;;;;;;;;;;;;;;;4.97;100.00;102636.91;5088930;28;1922;-74
2021/12/18 12:03:00;;;;;;;;;;;;;;;4.94;100.00;102633.41;5074966;28;1279;-74
2021/12/18 12:05:33;;;;;;;;;;;;;;;4.94;100.00;102623.50;5091446;28;942;-74
2021/12/18 12:08:14;;;;;;;;;;;;;;;4.99;100.00;102623.38;5091536;28;1524;-77
2021/12/18 12:11:02;;;;;;;;;;;;;;;5.05;100.00;102608.88;5084367;28;1389;-75
2021/12/18 12:13:43;;;;;;;;;;;;;;;4.98;100.00;102597.41;5082059;28;1970;-75
2021/12/18 12:16:11;;;;;;;;;;;;;;;4.99;100.00;102594.66;5090401;28;1391;-75
2021/12/18 12:18:52;;;;;;;;;;;;;;;5.02;100.00;102591.00;5092371;28;1334;-73
2021/12/18 12:21:33;;;;;;;;;;;;;;;5.08;100.00;102592.63;5092842;28;1981;-76
2021/12/18 12:24:00;;;;;;;;;;;;;;;5.08;100.00;102592.63;5092756;28;1368;-75
2021/12/18 12:26:26;;;;;;;;;;;;;;;5.09;100.00;102595.31;5075286;28;1485;-75
2021/12/18 12:28:53;;;;;;;;;;;;;;;5.12;100.00;102586.25;5093880;28;742;-75
2021/12/18 12:31:21;;;;;;;;;;;;;;;5.13;100.00;102588.00;5093144;28;1500;-77
2021/12/18 12:33:49;;;;;;;;;;;;;;;5.10;100.00;102586.28;5093036;28;1525;-76
2021/12/18 12:36:23;;;;;;;;;;;;;;;5.11;100.00;102582.66;5074807;28;1287;-75
2021/12/18 12:38:57;;;;;;;;;;;;;;;5.14;100.00;102577.19;5092694;28;1567;-78
2021/12/18 12:41:27;;;;;;;;;;;;;;;5.16;100.00;102569.94;5093029;28;1901;-75
2021/12/18 12:43:54;;;;;;;;;;;;;;;5.16;100.00;102571.78;5092447;28;1454;-74
2021/12/18 12:46:24;;;;;;;;;;;;;;;5.16;100.00;102564.56;5092166;28;1461;-74
2021/12/18 12:49:01;;;;;;;;;;;;;;;5.17;100.00;102565.44;5091989;28;1409;-76
2021/12/18 12:51:47;;;;;;;;;;;;;;;5.24;100.00;102563.44;5092416;28;898;-74
2021/12/18 12:54:39;;;;;;;;;;;;;;;5.24;100.00;102556.28;5072251;28;1055;-73
2021/12/18 12:57:27;;;;;;;;;;;;;;;5.26;100.00;102548.13;5074162;28;2144;-74
2021/12/18 12:59:55;;;;;;;;;;;;;;;5.29;100.00;102550.72;5092160;28;1953;-76
2021/12/18 13:02:22;;;;;;;;;;;;;;;5.32;100.00;102554.22;5091688;28;1511;-74
2021/12/18 13:04:48;;;;;;;;;;;;;;;5.38;100.00;102558.53;5092401;28;978;-76
2021/12/18 13:07:15;;;;;;;;;;;;;;;5.41;100.00;102557.56;5091773;28;1445;-75
2021/12/18 13:09:45;;;;;;;;;;;;;;;5.41;100.00;102555.78;5092652;28;775;-75
2021/12/18 13:12:12;;;;;;;;;;;;;;;5.36;100.00;102553.19;5074155;28;1489;-76
2021/12/18 13:14:38;;;;;;;;;;;;;;;5.34;100.00;102546.09;5091990;28;1306;-77
2021/12/18 13:17:16;;;;;;;;;;;;;;;5.29;100.00;102539.97;5073374;28;1372;-76
2021/12/18 13:19:53;;;;;;;;;;;;;;;5.31;100.00;102544.38;5091987;28;1968;-74
2021/12/18 13:22:21;;;;;;;;;;;;;;;5.32;100.00;102529.13;5092340;28;922;-77
2021/12/18 13:25:00;;;;;;;;;;;;;;;5.34;100.00;102528.16;5091829;28;1497;-74
2021/12/18 13:27:26;;;;;;;;;;;;;;;5.35;100.00;102523.63;5089744;28;1408;-76
2021/12/18 13:30:08;;;;;;;;;;;;;;;5.41;100.00;102514.47;5091972;28;1448;-76
2021/12/18 13:32:34;;;;;;;;;;;;;;;5.41;100.00;102510.00;5091802;28;1508;-75
2021/12/18 13:35:02;;;;;;;;;;;;;;;5.42;100.00;102509.03;5092001;28;1295;-76
2021/12/18 13:37:28;;;;;;;;;;;;;;;5.39;100.00;102501.06;5086854;28;1362;-77
2021/12/18 13:39:54;;;;;;;;;;;;;;;5.40;100.00;102500.13;5071455;28;1906;-75
2021/12/18 13:42:21;;;;;;;;;;;;;;;5.36;100.00;102482.31;5079135;28;1513;-77
2021/12/18 13:44:53;;;;;;;;;;;;;;;5.42;100.00;102492.88;5092041;28;851;-74
2021/12/18 13:47:21;;;;;;;;;;;;;;;5.36;100.00;102488.56;5091441;28;1552;-75
2021/12/18 13:49:49;;;;;;;;;;;;;;;5.40;100.00;102491.16;5092323;28;1021;-75
2021/12/18 13:55:27;;;;;;;;;;;;;;;5.32;100.00;102496.81;5114623;27;1154290;-74
2021/12/18 13:57:57;;;;;;;;;;;;;;;5.33;100.00;102490.47;5122004;28;1503;-78
2021/12/18 14:00:23;;;;;;;;;;;;;;;5.31;100.00;102492.34;5110812;28;1504;-78
2021/12/18 14:02:49;;;;;;;;;;;;;;;5.30;100.00;102486.06;5092186;28;1537;-74
2021/12/18 14:05:16;;;;;;;;;;;;;;;5.29;100.00;102486.09;5107583;28;1333;-76
2021/12/18 14:07:42;;;;;;;;;;;;;;;5.27;100.00;102486.16;5109561;28;1500;-72